Αναφορές METAR Αεροδρομίων

 

LGTS - THESSALONIKI - GREECE
Ενημερώθηκε: 19/08/2019 03:20
Αίθριος
Αίθριος
 Ανεμος από ΑΝΑ
Ανεμος: ΑΝΑ 7 km/h
Θερμοκρασία: 21°C
Σημείο Δρόσου: 15°C
Υγρασία: 69%
Βαρόμετρο: 1016 hPa
Περίληψη: Αίθριος
Visibility: greater than 10 km
2019/08/19 00:20 LGTS 190020Z 11004KT CAVOK 21/15 Q1016 NOSIG
LGLR - LARTISA - GREECE
Ενημερώθηκε: 19/08/2019 02:50
Αίθριος
Αίθριος
 Ανεμος από calm
Ανεμος: Απνοια
Θερμοκρασία: 18°C
Σημείο Δρόσου: 15°C
Υγρασία: 83%
Βαρόμετρο: 1016 hPa
Περίληψη: Αίθριος
Visibility: greater than 10 km
2019/08/18 23:50 LGLR 182350Z 00000KT CAVOK 18/15 Q1016 BLU
 
LGKZ - KOZANI - GREECE
Ενημερώθηκε: 19/08/2019 03:20

 Ανεμος από varies
Ανεμος: varies 4 km/h
Θερμοκρασία: 16°C
Σημείο Δρόσου: 11°C
Υγρασία: 72%
Βαρόμετρο: 1019 hPa
2019/08/19 00:20 LGKZ 190020Z AUTO VRB02KT //// // ////// 16/11 Q1019 RE//
LGKV - KAVALA - GREECE
Ενημερώθηκε: 18/08/2019 23:50
NOT Current
Αίθριος
Αίθριος
 Ανεμος από calm
Ανεμος: Απνοια
Θερμοκρασία: 21°C
Σημείο Δρόσου: 16°C
Υγρασία: 73%
Βαρόμετρο: 1015 hPa
Περίληψη: Αίθριος
Visibility: greater than 10 km
2019/08/18 20:50 LGKV 182050Z 00000KT CAVOK 21/16 Q1015
 
LGIO - IOANNINA - GREECE
Ενημερώθηκε: 18/08/2019 21:50
NOT Current
Αραιές Νεφώσεις
Αραιές Νεφώσεις
 Ανεμος από calm
Ανεμος: Απνοια
Θερμοκρασία: 24°C
Σημείο Δρόσου: 16°C
Υγρασία: 61%
Βαρόμετρο: 1017 hPa
Clouds: Αραιές Νεφώσεις
Visibility: 10 km
Cloud details: Αραιές Νεφώσεις 1067 m
2019/08/18 18:50 LGIO 181850Z 00000KT 9999 FEW035 24/16 Q1017
LGBL - BOLOS - GREECE
Ενημερώθηκε: 19/08/2019 02:50
Αίθριος
Αίθριος
 Ανεμος από Δ
Ανεμος: Δ 7 km/h
Θερμοκρασία: 19°C
Σημείο Δρόσου: 13°C
Υγρασία: 68%
Βαρόμετρο: 1016 hPa
Περίληψη: Αίθριος
Visibility: greater than 10 km
2019/08/18 23:50 LGBL 182350Z 26004KT CAVOK 19/13 Q1016
 
LGMT - MITILINI - GREECE
Ενημερώθηκε: 18/08/2019 22:50
NOT Current
Αίθριος
Αίθριος
 Ανεμος από Β
Ανεμος: Β 9 km/h
Θερμοκρασία: 24°C
Σημείο Δρόσου: 15°C
Υγρασία: 57%
Βαρόμετρο: 1014 hPa
Περίληψη: Αίθριος
Visibility: greater than 10 km
2019/08/18 19:50 LGMT 181950Z 36005KT 320V050 CAVOK 24/15 Q1014
LGAV - ATHENS - GREECE
Ενημερώθηκε: 19/08/2019 03:20
Αίθριος
Αίθριος
 Ανεμος από Β
Ανεμος: Β 9 km/h
Θερμοκρασία: 23°C
Σημείο Δρόσου: 10°C
Υγρασία: 44%
Βαρόμετρο: 1016 hPa
Περίληψη: Αίθριος
Visibility: greater than 10 km
2019/08/19 00:20 LGAV 190020Z 36005KT CAVOK 23/10 Q1016 NOSIG
 
LGRP - RODOS - GREECE
Ενημερώθηκε: 19/08/2019 03:20
Αίθριος
Αίθριος
 Ανεμος από ΒΒΔ
Ανεμος: ΒΒΔ 9 km/h
Θερμοκρασία: 27°C
Heat Index: 28°C
Σημείο Δρόσου: 18°C
Υγρασία: 58%
Βαρόμετρο: 1007 hPa
Περίληψη: Αίθριος
Visibility: greater than 10 km
2019/08/19 00:20 LGRP 190020Z 33005KT 300V010 CAVOK 27/18 Q1007 NOSIG
LGIR - HRAKLIO/KRITI - GREECE
Ενημερώθηκε: 19/08/2019 03:20
Αραιές Νεφώσεις
Αραιές Νεφώσεις
 Ανεμος από ΒΔ
Ανεμος: ΒΔ 28 km/h
Θερμοκρασία: 25°C
Σημείο Δρόσου: 17°C
Υγρασία: 61%
Βαρόμετρο: 1012 hPa
Clouds: Αραιές Νεφώσεις
Visibility: 10 km
Cloud details: Αραιές Νεφώσεις 762 m
2019/08/19 00:20 LGIR 190020Z 32015KT 9999 FEW025 25/17 Q1012 NOSIG
 
LGMK - MIKONOS - GREECE
Ενημερώθηκε: 19/08/2019 03:20
Αίθριος
Αίθριος
 Ανεμος από Β
Ανεμος: Β 28 km/h
Θερμοκρασία: 22°C
Σημείο Δρόσου: 11°C
Υγρασία: 50%
Βαρόμετρο: 1013 hPa
Περίληψη: Αίθριος
Visibility: greater than 10 km
2019/08/19 00:20 LGMK 190020Z 36015KT CAVOK 22/11 Q1013
LGKR - KERKIRA - GREECE
Ενημερώθηκε: 19/08/2019 03:20
Αίθριος
Αίθριος
 Ανεμος από Δ
Ανεμος: Δ 6 km/h
Θερμοκρασία: 22°C
Σημείο Δρόσου: 17°C
Υγρασία: 73%
Βαρόμετρο: 1015 hPa
Περίληψη: Αίθριος
Visibility: greater than 10 km
2019/08/19 00:20 LGKR 190020Z 27003KT CAVOK 22/17 Q1015 NOSIG